Time;durP1;ratioP1;P1;durP2;ratioP2;P2;SDS_P1;SDS_P2;PMS_P1;PMS_P2;Temp;Humidity;BMP_temperature;BMP_pressure;BME280_temperature;BME280_humidity;BME280_pressure;Samples;Min_cycle;Max_cycle;Signal;HPM_P1;HPM_P2
2022/05/17 00:00:50;;;;;;;16.30;3.10;;;;;;;14.00;100.00;101942.56;5070215;28;20048;-35
2022/05/17 00:03:20;;;;;;;13.13;3.13;;;;;;;13.99;100.00;101943.69;5071062;28;20045;-30
2022/05/17 00:05:48;;;;;;;13.80;3.80;;;;;;;13.97;100.00;101949.63;5069993;28;20055;-34
2022/05/17 00:08:18;;;;;;;13.60;2.85;;;;;;;13.96;100.00;101945.13;5070594;28;20041;-28
2022/05/17 00:10:48;;;;;;;16.02;2.95;;;;;;;13.95;100.00;101943.47;5071365;28;20068;-29
2022/05/17 00:13:16;;;;;;;11.82;3.15;;;;;;;13.94;100.00;101947.41;5071055;28;20490;-28
2022/05/17 00:15:47;;;;;;;12.98;2.70;;;;;;;13.93;100.00;101942.91;5070071;28;20056;-36
2022/05/17 00:18:16;;;;;;;13.70;3.17;;;;;;;13.89;100.00;101941.84;5071247;28;20152;-30
2022/05/17 00:20:46;;;;;;;16.67;3.60;;;;;;;13.89;100.00;101943.81;5071129;28;20111;-28
2022/05/17 00:23:15;;;;;;;11.13;3.08;;;;;;;13.88;100.00;101937.34;5070951;28;20043;-28
2022/05/17 00:25:47;;;;;;;15.13;3.22;;;;;;;13.87;100.00;101943.25;5060151;28;20047;-31
2022/05/17 00:28:15;;;;;;;16.50;4.15;;;;;;;13.86;100.00;101935.97;5070488;28;20044;-32
2022/05/17 00:30:43;;;;;;;13.15;3.20;;;;;;;13.83;100.00;101937.38;5070799;28;20494;-34
2022/05/17 00:33:11;;;;;;;15.38;3.08;;;;;;;13.83;100.00;101945.81;5070790;28;20544;-34
2022/05/17 00:35:39;;;;;;;20.10;3.40;;;;;;;13.81;100.00;101936.84;5070161;28;20048;-34
2022/05/17 00:38:08;;;;;;;15.02;3.17;;;;;;;13.82;100.00;101938.53;5070434;28;20047;-35
2022/05/17 00:40:36;;;;;;;14.23;3.25;;;;;;;13.80;100.00;101936.00;5068866;28;20056;-35
2022/05/17 00:43:07;;;;;;;15.50;2.97;;;;;;;13.79;100.00;101931.53;5070202;28;20159;-29
2022/05/17 00:45:36;;;;;;;14.70;3.17;;;;;;;13.77;100.00;101938.59;5070869;28;20037;-29
2022/05/17 00:48:05;;;;;;;17.42;3.17;;;;;;;13.76;100.00;101939.72;5070740;28;20044;-30
2022/05/17 00:50:36;;;;;;;15.98;3.03;;;;;;;13.76;100.00;101934.94;5069787;28;20049;-30
2022/05/17 00:53:07;;;;;;;15.90;3.15;;;;;;;13.78;100.00;101937.47;5070755;28;20504;-31
2022/05/17 00:55:42;;;;;;;13.77;2.85;;;;;;;13.76;100.00;101934.09;5070828;28;20051;-32
2022/05/17 00:58:14;;;;;;;14.48;2.80;;;;;;;13.72;100.00;101941.44;5065148;28;20422;-34
2022/05/17 01:00:54;;;;;;;14.45;3.08;;;;;;;13.72;100.00;101953.50;5070892;28;20052;-31
2022/05/17 01:03:23;;;;;;;18.15;3.63;;;;;;;13.68;100.00;101941.19;5065189;28;20048;-26
2022/05/17 01:05:55;;;;;;;14.40;2.63;;;;;;;13.66;100.00;101946.25;5070570;28;20106;-30
2022/05/17 01:08:25;;;;;;;16.88;2.97;;;;;;;13.66;100.00;101937.00;5070742;28;20048;-33
2022/05/17 01:10:54;;;;;;;15.70;3.05;;;;;;;13.65;100.00;101936.16;5069810;28;20417;-30
2022/05/17 01:16:08;;;;;;;14.20;2.95;;;;;;;13.63;100.00;101948.78;5072226;28;20083;-31
2022/05/17 01:18:39;;;;;;;16.85;2.85;;;;;;;13.64;100.00;101945.69;5073539;28;20045;-39
2022/05/17 01:21:10;;;;;;;13.45;3.13;;;;;;;13.63;100.00;101938.41;5074330;28;20041;-32
2022/05/17 01:23:38;;;;;;;13.80;2.70;;;;;;;13.62;100.00;101944.31;5074218;28;20051;-30
2022/05/17 01:26:09;;;;;;;10.93;2.70;;;;;;;13.62;100.00;101939.53;5073243;28;20401;-33
2022/05/17 01:28:38;;;;;;;13.75;3.38;;;;;;;13.61;100.00;101945.44;5074335;28;20123;-31
2022/05/17 01:31:07;;;;;;;15.57;3.05;;;;;;;13.61;100.00;101937.03;5073663;28;20045;-35
2022/05/17 01:33:36;;;;;;;15.15;3.00;;;;;;;13.59;100.00;101936.50;5073983;28;20080;-32
2022/05/17 01:36:08;;;;;;;18.10;3.47;;;;;;;13.59;100.00;101942.13;5073951;28;20127;-29
2022/05/17 01:38:38;;;;;;;15.65;3.33;;;;;;;13.56;100.00;101945.50;5073244;28;20104;-31
2022/05/17 01:41:06;;;;;;;12.95;2.65;;;;;;;13.54;100.00;101943.00;5073959;28;20047;-33
2022/05/17 01:43:34;;;;;;;11.25;2.50;;;;;;;13.52;100.00;101950.03;5073911;28;20052;-27
2022/05/17 01:46:05;;;;;;;13.63;3.05;;;;;;;13.53;100.00;101943.28;5062219;28;20044;-31
2022/05/17 01:48:33;;;;;;;13.45;2.55;;;;;;;13.51;100.00;101949.19;5073908;28;20044;-29
2022/05/17 01:51:01;;;;;;;14.35;3.10;;;;;;;13.49;100.00;101953.41;5073564;28;20060;-30
2022/05/17 01:53:29;;;;;;;15.32;3.58;;;;;;;13.47;100.00;101948.09;5072859;28;20064;-34
2022/05/17 01:55:58;;;;;;;14.20;2.85;;;;;;;13.47;100.00;101952.84;5073635;28;20040;-30
2022/05/17 01:58:26;;;;;;;15.00;3.15;;;;;;;13.43;100.00;101950.63;5073674;28;20059;-34
2022/05/17 02:00:54;;;;;;;16.80;3.03;;;;;;;13.42;100.00;101951.75;5071571;28;20048;-34
2022/05/17 02:03:22;;;;;;;11.90;3.45;;;;;;;13.39;100.00;101954.31;5072608;28;20076;-31
2022/05/17 02:05:50;;;;;;;12.63;2.95;;;;;;;13.39;100.00;101957.94;5073141;28;20037;-33
2022/05/17 02:08:18;;;;;;;11.98;2.97;;;;;;;13.39;100.00;101957.09;5071447;28;20056;-29
2022/05/17 02:10:45;;;;;;;15.05;3.10;;;;;;;13.37;100.00;101956.59;5073343;28;20055;-34
2022/05/17 02:13:14;;;;;;;14.38;3.05;;;;;;;13.36;100.00;101952.94;5070038;28;20071;-32
2022/05/17 02:15:42;;;;;;;11.95;2.67;;;;;;;13.33;100.00;101959.13;5072462;28;20059;-31
2022/05/17 02:18:10;;;;;;;12.75;2.67;;;;;;;13.34;100.00;101955.19;5072946;28;20045;-33
2022/05/17 02:20:37;;;;;;;15.23;2.63;;;;;;;13.33;100.00;101956.31;5072584;28;20056;-32
2022/05/17 02:23:07;;;;;;;11.00;2.92;;;;;;;13.34;100.00;101965.56;5073151;28;20072;-32
2022/05/17 02:25:35;;;;;;;13.20;2.78;;;;;;;13.32;100.00;101962.22;5073082;28;20048;-32
2022/05/17 02:28:08;;;;;;;12.15;2.72;;;;;;;13.30;100.00;101956.91;5071887;28;20135;-27
2022/05/17 02:30:37;;;;;;;12.30;3.60;;;;;;;13.31;100.00;101971.75;5072792;28;20048;-29
2022/05/17 02:33:06;;;;;;;13.45;2.67;;;;;;;13.30;100.00;101976.53;5073064;28;20425;-30
2022/05/17 02:35:34;;;;;;;14.02;2.97;;;;;;;13.28;100.00;101972.34;5072120;28;20049;-28
2022/05/17 02:38:01;;;;;;;15.70;3.15;;;;;;;13.28;100.00;101986.34;5073115;28;20060;-29
2022/05/17 02:40:29;;;;;;;13.02;2.63;;;;;;;13.27;100.00;101981.88;5072622;28;20063;-33
2022/05/17 02:42:57;;;;;;;12.88;3.50;;;;;;;13.27;100.00;101979.91;5072174;28;20529;-36
2022/05/17 02:45:25;;;;;;;12.63;2.90;;;;;;;13.26;100.00;101983.00;5072538;28;20487;-30
2022/05/17 02:47:54;;;;;;;17.65;3.65;;;;;;;13.27;100.00;101987.47;5072647;28;20099;-33
2022/05/17 02:50:22;;;;;;;16.67;3.03;;;;;;;13.24;100.00;101985.25;5071899;28;20140;-31
2022/05/17 02:52:50;;;;;;;11.20;3.03;;;;;;;13.23;100.00;101978.81;5072379;28;20076;-28
2022/05/17 02:55:18;;;;;;;12.45;2.70;;;;;;;13.23;100.00;101981.59;5071336;28;20429;-28
2022/05/17 02:57:47;;;;;;;10.50;3.13;;;;;;;13.23;100.00;101976.00;5071248;28;20569;-31
2022/05/17 03:00:16;;;;;;;16.42;3.45;;;;;;;13.23;100.00;101987.22;5071570;28;20041;-31
2022/05/17 03:02:44;;;;;;;14.05;3.40;;;;;;;13.22;100.00;101982.72;5071471;28;20055;-30
2022/05/17 03:05:14;;;;;;;13.27;3.03;;;;;;;13.23;100.00;101978.81;5072297;28;20062;-33
2022/05/17 03:07:42;;;;;;;12.68;3.03;;;;;;;13.20;100.00;101987.78;5072212;28;20110;-28
2022/05/17 03:10:12;;;;;;;12.15;2.95;;;;;;;13.22;100.00;101988.34;5071712;28;20049;-30
2022/05/17 03:12:40;;;;;;;12.20;2.90;;;;;;;13.22;100.00;101988.34;5071957;28;20045;-33
2022/05/17 03:15:09;;;;;;;14.27;3.53;;;;;;;13.23;100.00;101983.56;5072011;28;20048;-33
2022/05/17 03:17:37;;;;;;;12.07;2.88;;;;;;;13.22;100.00;101991.13;5071144;28;20497;-27
2022/05/17 03:20:06;;;;;;;12.30;3.40;;;;;;;13.23;100.00;101978.81;5071861;28;20429;-28
2022/05/17 03:22:35;;;;;;;11.40;2.67;;;;;;;13.24;100.00;101980.47;5071703;28;20056;-30
2022/05/17 03:25:04;;;;;;;11.57;3.05;;;;;;;13.24;100.00;101986.09;5070937;28;20040;-28
2022/05/17 03:27:52;;;;;;;13.10;3.33;;;;;;;13.22;100.00;101982.72;5071580;28;20482;-29
2022/05/17 03:30:21;;;;;;;16.45;3.50;;;;;;;13.24;100.00;101983.28;5071741;28;20070;-34
2022/05/17 03:32:48;;;;;;;17.17;3.42;;;;;;;13.28;100.00;101977.94;5070795;28;20058;-28
2022/05/17 03:35:16;;;;;;;15.77;3.05;;;;;;;13.28;100.00;101973.16;5071194;28;20131;-34
2022/05/17 03:37:46;;;;;;;8.63;2.22;;;;;;;13.29;100.00;101971.22;5069963;28;20063;-29
2022/05/17 03:40:14;;;;;;;10.38;2.60;;;;;;;13.30;100.00;101972.88;5071052;28;20492;-28
2022/05/17 03:42:42;;;;;;;12.05;2.90;;;;;;;13.32;100.00;101981.84;5071292;28;20044;-31
2022/05/17 03:45:10;;;;;;;13.63;3.22;;;;;;;13.31;100.00;101975.41;5070619;28;20105;-30
2022/05/17 03:47:39;;;;;;;12.32;3.40;;;;;;;13.31;100.00;101988.56;5071372;28;20036;-31
2022/05/17 03:50:08;;;;;;;14.65;4.07;;;;;;;13.31;100.00;101986.63;5071355;28;20052;-31
2022/05/17 03:52:36;;;;;;;11.63;2.90;;;;;;;13.32;100.00;101988.28;5070812;28;20040;-31
2022/05/17 03:55:07;;;;;;;12.35;3.30;;;;;;;13.34;100.00;101985.19;5071572;28;20052;-33
2022/05/17 03:57:35;;;;;;;12.05;3.00;;;;;;;13.34;100.00;101988.00;5071439;28;20040;-36
2022/05/17 04:00:06;;;;;;;11.95;3.00;;;;;;;13.35;100.00;101995.28;5067211;28;20043;-32
2022/05/17 04:02:39;;;;;;;6.05;1.95;;;;;;;13.35;100.00;101987.72;5071345;28;20518;-28
2022/05/17 04:05:09;;;;;;;10.32;2.72;;;;;;;13.37;100.00;101988.25;5071468;28;20044;-35
2022/05/17 04:07:38;;;;;;;12.02;3.08;;;;;;;13.38;100.00;101981.53;5066772;28;20072;-29
2022/05/17 04:10:09;;;;;;;12.65;2.70;;;;;;;13.41;100.00;101986.53;5071151;28;20051;-31
2022/05/17 04:12:37;;;;;;;11.18;2.78;;;;;;;13.40;100.00;101996.06;5070949;28;20486;-33
2022/05/17 04:15:07;;;;;;;10.32;2.88;;;;;;;13.41;100.00;101991.28;5070321;28;20051;-33
2022/05/17 04:17:35;;;;;;;14.93;3.25;;;;;;;13.42;100.00;102004.19;5071185;28;20405;-31
2022/05/17 04:20:03;;;;;;;8.98;2.50;;;;;;;13.43;100.00;102001.09;5070416;28;20048;-31
2022/05/17 04:22:31;;;;;;;14.45;3.45;;;;;;;13.45;100.00;102009.22;5067697;28;20406;-31
2022/05/17 04:24:59;;;;;;;11.90;3.00;;;;;;;13.47;100.00;102012.56;5071087;28;20056;-28
2022/05/17 04:27:30;;;;;;;8.98;2.65;;;;;;;13.49;100.00;102012.28;5068773;28;20488;-33
2022/05/17 04:29:57;;;;;;;12.00;2.65;;;;;;;13.51;100.00;102012.84;5071044;28;20059;-32
2022/05/17 04:32:25;;;;;;;10.00;2.63;;;;;;;13.53;100.00;102017.03;5070907;28;20054;-34
2022/05/17 04:34:53;;;;;;;11.60;3.10;;;;;;;13.55;100.00;102013.94;5069981;28;20054;-33
2022/05/17 04:37:20;;;;;;;13.90;2.90;;;;;;;13.58;100.00;102019.81;5070806;28;20040;-32
2022/05/17 04:39:48;;;;;;;10.55;3.00;;;;;;;13.61;100.00;102023.97;5070765;28;20401;-33
2022/05/17 04:42:16;;;;;;;11.70;2.72;;;;;;;13.62;100.00;102029.28;5070009;28;20045;-30
2022/05/17 04:44:46;;;;;;;12.18;3.20;;;;;;;13.64;100.00;102041.06;5070845;28;20460;-30
2022/05/17 04:47:14;;;;;;;14.45;2.80;;;;;;;13.65;100.00;102034.31;5070491;28;20051;-30
2022/05/17 04:49:42;;;;;;;16.40;3.50;;;;;;;13.65;100.00;102033.47;5071105;28;20045;-28
2022/05/17 04:52:09;;;;;;;9.68;2.67;;;;;;;13.66;100.00;102036.00;5071616;28;20040;-34
2022/05/17 04:54:37;;;;;;;13.80;2.75;;;;;;;13.71;100.00;102049.16;5063109;28;20044;-35
2022/05/17 04:57:06;;;;;;;9.82;2.70;;;;;;;13.72;100.00;102053.66;5072901;28;20052;-28
2022/05/17 04:59:33;;;;;;;9.52;2.25;;;;;;;13.73;100.00;102046.91;5073839;28;20491;-30
2022/05/17 05:02:03;;;;;;;11.10;2.95;;;;;;;13.76;100.00;102049.13;5072895;28;20048;-35
2022/05/17 05:04:30;;;;;;;12.35;2.15;;;;;;;13.79;100.00;102045.72;5067341;28;20063;-27
2022/05/17 05:06:59;;;;;;;10.15;2.47;;;;;;;13.79;100.00;102052.16;5073243;28;20052;-25
2022/05/17 05:09:28;;;;;;;11.18;2.55;;;;;;;13.81;100.00;102051.88;5073234;28;20614;-33
2022/05/17 05:11:56;;;;;;;12.63;2.38;;;;;;;13.84;100.00;102050.47;5073491;28;20048;-35
2022/05/17 05:14:24;;;;;;;10.00;2.45;;;;;;;13.85;100.00;102050.16;5073137;28;20420;-31
2022/05/17 05:16:52;;;;;;;10.32;2.30;;;;;;;13.87;100.00;102055.50;5072273;28;20433;-31
2022/05/17 05:19:21;;;;;;;11.93;2.35;;;;;;;13.89;100.00;102053.22;5071704;28;20406;-34
2022/05/17 05:21:49;;;;;;;8.05;2.10;;;;;;;13.91;100.00;102053.78;5073254;28;20071;-29
2022/05/17 05:24:17;;;;;;;14.32;2.58;;;;;;;13.94;100.00;102061.63;5072579;28;20080;-35
2022/05/17 05:26:45;;;;;;;9.13;1.98;;;;;;;13.98;100.00;102057.09;5073188;28;20049;-31
2022/05/17 05:29:13;;;;;;;12.63;3.05;;;;;;;14.02;100.00;102061.81;5072665;28;20045;-37
2022/05/17 05:31:41;;;;;;;11.30;2.45;;;;;;;14.05;100.00;102064.03;5072225;28;20044;-30
2022/05/17 05:34:08;;;;;;;11.52;2.20;;;;;;;14.10;100.00;102065.97;5072648;28;20132;-33
2022/05/17 05:36:38;;;;;;;10.40;2.22;;;;;;;14.16;100.00;102066.78;5072833;28;20086;-32
2022/05/17 05:39:05;;;;;;;11.60;2.80;;;;;;;14.18;100.00;102062.53;5073115;28;20059;-32
2022/05/17 05:41:33;;;;;;;10.20;2.30;;;;;;;14.23;100.00;102065.28;5073795;28;20049;-27
2022/05/17 05:44:01;;;;;;;8.27;2.00;;;;;;;14.29;100.00;102072.53;5073722;28;20044;-34
2022/05/17 05:46:29;;;;;;;8.73;2.38;;;;;;;14.32;100.00;102076.72;5072325;28;20130;-32
2022/05/17 05:48:57;;;;;;;13.77;2.22;;;;;;;14.36;100.00;102066.59;5072085;28;20599;-31
2022/05/17 05:51:25;;;;;;;11.18;2.25;;;;;;;14.39;100.00;102075.25;5071847;28;20045;-36
2022/05/17 05:53:54;;;;;;;9.95;2.42;;;;;;;14.43;100.00;102075.53;5073118;28;20413;-28
2022/05/17 05:56:23;;;;;;;7.68;2.10;;;;;;;14.42;100.00;102080.31;5073763;28;20127;-32
2022/05/17 05:58:51;;;;;;;9.02;1.83;;;;;;;14.45;100.00;102078.88;5071598;28;20482;-35
2022/05/17 06:01:19;;;;;;;8.20;2.17;;;;;;;14.49;100.00;102077.16;5072723;28;20051;-34
2022/05/17 06:03:47;;;;;;;8.55;2.60;;;;;;;14.55;100.00;102083.56;5073504;28;20044;-31
2022/05/17 06:06:16;;;;;;;7.82;1.85;;;;;;;14.60;100.00;102084.34;5072504;28;20055;-30
2022/05/17 06:08:44;;;;;;;6.47;1.90;;;;;;;14.64;100.00;102082.63;5073390;28;20476;-31
2022/05/17 06:11:14;;;;;;;10.65;2.38;;;;;;;14.72;100.00;102079.16;5073593;28;20055;-28
2022/05/17 06:13:41;;;;;;;10.07;2.03;;;;;;;14.80;100.00;102086.94;5072365;28;20052;-34
2022/05/17 06:16:09;;;;;;;9.15;1.88;;;;;;;14.90;100.00;102090.78;5073113;28;20171;-32
2022/05/17 06:18:37;;;;;;;12.60;2.58;;;;;;;15.00;100.00;102091.47;5073071;28;20123;-32
2022/05/17 06:21:05;;;;;;;9.35;2.38;;;;;;;15.12;100.00;102093.88;5072397;28;20040;-34
2022/05/17 06:23:33;;;;;;;9.75;1.90;;;;;;;15.26;100.00;102083.56;5072974;28;20041;-28
2022/05/17 06:26:00;;;;;;;7.80;2.00;;;;;;;15.44;100.00;102087.56;5072586;28;20085;-29
2022/05/17 06:28:30;;;;;;;7.78;1.80;;;;;;;15.63;100.00;102087.59;5072180;28;20770;-38
2022/05/17 06:30:57;;;;;;;8.80;1.95;;;;;;;15.92;100.00;102079.03;5072755;28;20048;-28
2022/05/17 06:33:26;;;;;;;6.53;1.85;;;;;;;16.35;100.00;102088.16;5072975;28;20131;-35
2022/05/17 06:35:55;;;;;;;9.40;2.00;;;;;;;16.91;100.00;102090.81;5072018;28;20694;-32
2022/05/17 06:38:23;;;;;;;11.15;2.25;;;;;;;17.42;100.00;102084.91;5058334;28;20045;-27
2022/05/17 06:40:51;;;;;;;9.85;2.08;;;;;;;18.08;100.00;102086.25;5052287;28;20096;-30
2022/05/17 06:43:19;;;;;;;8.82;1.70;;;;;;;18.85;100.00;102093.56;5072787;28;20052;-35
2022/05/17 06:45:49;;;;;;;9.85;1.90;;;;;;;19.48;100.00;102095.13;5072516;28;20047;-35
2022/05/17 06:48:18;;;;;;;7.40;2.00;;;;;;;19.84;100.00;102086.38;5071854;28;20041;-32
2022/05/17 06:50:45;;;;;;;7.60;1.63;;;;;;;20.13;100.00;102097.06;5072441;28;20044;-29
2022/05/17 06:53:13;;;;;;;6.80;1.55;;;;;;;20.25;100.00;102097.22;5072317;28;20485;-33
2022/05/17 06:55:41;;;;;;;7.63;2.10;;;;;;;20.14;100.00;102105.25;5071422;28;20040;-31
2022/05/17 06:58:09;;;;;;;7.40;1.63;;;;;;;19.84;100.00;102107.06;5071251;28;20425;-34
2022/05/17 07:00:37;;;;;;;9.82;1.98;;;;;;;19.51;100.00;102117.16;5072289;28;20048;-35
2022/05/17 07:03:06;;;;;;;7.55;1.75;;;;;;;19.23;100.00;102116.53;5071451;28;20448;-30
2022/05/17 07:05:34;;;;;;;6.55;1.48;;;;;;;19.13;100.00;102119.69;5072429;28;20052;-28
2022/05/17 07:08:02;;;;;;;6.22;1.80;;;;;;;19.04;100.00;102119.63;5072424;28;20067;-34
2022/05/17 07:13:16;;;;;;;7.85;1.58;;;;;;;18.82;100.00;102117.69;5069365;28;20052;-37
2022/05/17 07:15:46;;;;;;;7.05;1.90;;;;;;;18.74;100.00;102120.47;5071804;28;20050;-37
2022/05/17 07:18:18;;;;;;;7.78;1.70;;;;;;;18.54;100.00;102114.19;5071772;28;20041;-29
2022/05/17 07:20:46;;;;;;;6.63;1.83;;;;;;;18.50;100.00;102124.47;5072382;28;20059;-29
2022/05/17 07:23:17;;;;;;;9.93;1.98;;;;;;;18.57;100.00;102129.66;5071339;28;20109;-28
2022/05/17 07:25:46;;;;;;;7.70;1.48;;;;;;;18.66;100.00;102130.56;5071821;28;20056;-32
2022/05/17 07:28:18;;;;;;;6.10;1.63;;;;;;;18.68;100.00;102130.25;5071796;28;20044;-30
2022/05/17 07:30:45;;;;;;;7.65;1.60;;;;;;;18.86;100.00;102127.19;5070927;28;20059;-33
2022/05/17 07:33:13;;;;;;;7.65;1.77;;;;;;;18.99;100.00;102138.72;5071694;28;20040;-32
2022/05/17 07:35:43;;;;;;;5.88;1.75;;;;;;;19.13;100.00;102139.47;5071846;28;20040;-35
2022/05/17 07:38:11;;;;;;;8.07;1.92;;;;;;;19.32;100.00;102140.06;5071045;28;20044;-33
2022/05/17 07:40:39;;;;;;;6.60;1.73;;;;;;;19.44;99.45;102145.09;5071524;28;20051;-28
2022/05/17 07:43:06;;;;;;;8.77;2.00;;;;;;;19.63;98.63;102145.66;5071341;28;20045;-28
2022/05/17 07:45:34;;;;;;;8.52;1.85;;;;;;;20.05;99.44;102143.25;5070640;28;20040;-29
2022/05/17 07:48:03;;;;;;;7.68;1.77;;;;;;;20.68;95.23;102145.41;5071475;28;20040;-29
2022/05/17 07:50:31;;;;;;;6.50;1.75;;;;;;;21.08;91.84;102154.47;5071309;28;20041;-31
2022/05/17 07:53:06;;;;;;;8.98;1.90;;;;;;;21.55;90.37;102155.31;5070524;28;20048;-31
2022/05/17 07:55:35;;;;;;;8.65;1.80;;;;;;;21.98;87.14;102151.38;5071207;28;20071;-30
2022/05/17 07:58:04;;;;;;;6.25;1.80;;;;;;;22.30;84.69;102156.31;5070715;28;20051;-35
2022/05/17 08:00:32;;;;;;;7.78;2.20;;;;;;;22.68;82.13;102155.28;5071334;28;20417;-29
2022/05/17 08:03:00;;;;;;;7.30;1.60;;;;;;;22.97;79.06;102158.03;5070255;28;20048;-33
2022/05/17 08:05:29;;;;;;;9.43;2.05;;;;;;;23.26;78.48;102154.16;5070503;28;20087;-31
2022/05/17 08:07:58;;;;;;;5.38;1.45;;;;;;;23.85;75.35;102158.56;5069700;28;20060;-35
2022/05/17 08:10:27;;;;;;;7.03;1.73;;;;;;;24.34;73.31;102165.03;5070969;28;20272;-30
2022/05/17 08:12:55;;;;;;;5.97;1.60;;;;;;;24.85;70.46;102157.53;5069011;28;20067;-36
2022/05/17 08:15:24;;;;;;;7.35;1.63;;;;;;;25.43;68.34;102163.59;5070989;28;20067;-32
2022/05/17 08:17:58;;;;;;;9.13;1.95;;;;;;;26.08;64.50;102161.97;5071250;28;20060;-30
2022/05/17 08:20:25;;;;;;;7.40;1.70;;;;;;;26.26;61.71;102162.34;5069918;28;20048;-38
2022/05/17 08:22:53;;;;;;;6.50;1.73;;;;;;;26.25;60.68;102168.47;5063871;28;20053;-31
2022/05/17 08:28:09;;;;;;;6.55;1.60;;;;;;;26.01;60.66;102152.38;5065210;28;20068;-30
2022/05/17 08:30:38;;;;;;;8.05;1.70;;;;;;;26.37;60.65;102159.78;5070880;28;20044;-34
2022/05/17 08:33:17;;;;;;;8.55;2.25;;;;;;;27.02;58.52;102152.09;5070370;28;20055;-31
2022/05/17 08:35:50;;;;;;;5.80;1.52;;;;;;;27.53;55.74;102154.66;5071222;28;20401;-31
2022/05/17 08:38:21;;;;;;;7.97;2.13;;;;;;;28.13;54.68;102161.38;5070949;28;20044;-30
2022/05/17 08:41:08;;;;;;;6.28;1.65;;;;;;;28.30;50.30;102154.25;5070102;28;20049;-34
2022/05/17 08:43:47;;;;;;;6.28;1.75;;;;;;;27.93;51.14;102150.41;5070855;28;20061;-30
2022/05/17 08:46:25;;;;;;;7.93;1.90;;;;;;;27.68;51.99;102150.00;5070845;28;20044;-31
2022/05/17 08:48:56;;;;;;;6.50;1.67;;;;;;;27.94;52.34;102150.00;5065446;28;20048;-30
2022/05/17 08:51:44;;;;;;;6.95;1.55;;;;;;;28.61;47.50;102147.22;5070696;28;20498;-34
2022/05/17 08:54:17;;;;;;;4.88;1.30;;;;;;;28.86;47.99;102143.84;5066893;28;20055;-36
2022/05/17 08:56:49;;;;;;;7.65;1.60;;;;;;;29.04;47.62;102142.81;5068373;28;20055;-38
2022/05/17 08:59:22;;;;;;;6.60;1.73;;;;;;;29.50;45.27;102148.22;5070851;28;20065;-38
2022/05/17 09:01:55;;;;;;;6.63;2.05;;;;;;;29.70;44.52;102145.91;5066398;28;20501;-30
2022/05/17 09:04:56;;;;;;;5.72;1.80;;;;;;;29.80;40.37;102151.72;5070636;28;20048;-30
2022/05/17 09:07:26;;;;;;;7.65;1.67;;;;;;;30.07;44.35;102140.00;5071089;28;20032;-37
2022/05/17 09:10:01;;;;;;;6.72;2.00;;;;;;;30.42;42.65;102148.81;5069953;28;20044;-37
2022/05/17 09:12:39;;;;;;;5.22;1.52;;;;;;;30.77;40.81;102147.34;5070530;28;20071;-36
2022/05/17 09:15:10;;;;;;;6.85;1.70;;;;;;;31.04;40.59;102145.75;5070437;28;20048;-30
2022/05/17 09:17:37;;;;;;;8.07;2.03;;;;;;;31.18;39.57;102142.06;5030033;28;20048;-36
2022/05/17 09:20:08;;;;;;;6.85;1.77;;;;;;;31.37;38.98;102135.09;5030568;28;20388;-32
2022/05/17 09:22:36;;;;;;;6.67;1.67;;;;;;;31.47;38.94;102132.19;5029847;28;20046;-33
2022/05/17 09:25:15;;;;;;;5.47;1.60;;;;;;;31.20;37.39;102135.91;5030588;28;20061;-36
2022/05/17 09:27:48;;;;;;;6.55;1.58;;;;;;;31.17;38.94;102144.16;5027974;28;20445;-33
2022/05/17 09:30:30;;;;;;;5.38;1.83;;;;;;;31.45;38.07;102140.44;5030003;28;20045;-31
2022/05/17 09:33:01;;;;;;;5.97;1.60;;;;;;;31.60;38.23;102149.09;5028063;28;20147;-33
2022/05/17 09:35:30;;;;;;;8.43;2.10;;;;;;;31.54;37.48;102142.09;5030364;28;20058;-32
2022/05/17 09:38:01;;;;;;;6.60;1.52;;;;;;;31.48;37.47;102138.81;5032411;28;20053;-35
2022/05/17 09:40:32;;;;;;;7.55;1.67;;;;;;;31.32;37.59;102141.28;5034017;28;20057;-33
2022/05/17 09:43:04;;;;;;;7.22;1.58;;;;;;;31.46;38.16;102147.03;5034052;28;20133;-31
2022/05/17 09:45:46;;;;;;;5.68;1.55;;;;;;;31.74;36.09;102144.19;5033087;28;20499;-36
2022/05/17 09:48:27;;;;;;;6.03;1.70;;;;;;;31.84;34.36;102148.28;5033445;28;20072;-33
2022/05/17 09:53:44;;;;;;;5.55;1.90;;;;;;;31.83;36.17;102141.66;5031708;28;20041;-31
2022/05/17 09:56:13;;;;;;;7.25;1.65;;;;;;;32.05;35.45;102148.22;5033646;28;20048;-31
2022/05/17 09:58:43;;;;;;;6.07;1.50;;;;;;;31.99;34.49;102144.09;5032636;28;20518;-31
2022/05/17 10:01:15;;;;;;;5.70;1.52;;;;;;;31.74;35.05;102144.19;5027955;28;20136;-30
2022/05/17 10:03:58;;;;;;;6.22;1.50;;;;;;;31.66;35.06;102144.59;5033589;28;20061;-38
2022/05/17 10:06:32;;;;;;;6.75;1.60;;;;;;;31.22;35.94;102136.31;5028452;28;20049;-31
2022/05/17 10:09:04;;;;;;;4.85;1.45;;;;;;;30.98;36.03;102135.84;5033405;28;20037;-30
2022/05/17 10:11:44;;;;;;;6.47;1.50;;;;;;;30.92;35.22;102131.72;5028193;28;20045;-30
2022/05/17 10:14:20;;;;;;;6.00;1.70;;;;;;;30.74;36.55;102137.44;5033386;28;20056;-34
2022/05/17 10:16:54;;;;;;;4.85;1.42;;;;;;;30.73;36.61;102140.75;5055087;28;20053;-30
2022/05/17 10:19:38;;;;;;;7.57;1.60;;;;;;;30.89;36.42;102132.53;5069275;28;20053;-31
2022/05/17 10:22:16;;;;;;;4.65;1.50;;;;;;;30.90;36.46;102133.38;5073274;28;20060;-31
2022/05/17 10:24:49;;;;;;;6.20;1.55;;;;;;;30.95;35.81;102135.84;5071193;28;20486;-31
2022/05/17 10:27:22;;;;;;;6.20;1.70;;;;;;;30.80;35.80;102117.69;5072493;28;20045;-34
2022/05/17 10:29:52;;;;;;;6.35;1.67;;;;;;;30.73;36.21;102124.28;5070480;28;20067;-30
2022/05/17 10:32:29;;;;;;;4.95;1.40;;;;;;;30.68;35.80;102129.59;5073106;28;20481;-31
2022/05/17 10:35:16;;;;;;;5.18;1.50;;;;;;;30.46;36.57;102123.72;5071617;28;20094;-31
2022/05/17 10:37:48;;;;;;;4.97;1.70;;;;;;;30.41;36.02;102126.16;5072939;28;20048;-31
2022/05/17 10:40:20;;;;;;;6.90;1.65;;;;;;;30.24;36.09;102121.97;5071791;28;20052;-32
2022/05/17 10:42:49;;;;;;;6.80;1.98;;;;;;;29.98;35.94;102125.13;5072974;28;20493;-31
2022/05/17 10:45:20;;;;;;;5.45;1.55;;;;;;;29.65;36.83;102123.25;5069592;28;20060;-30
2022/05/17 10:47:57;;;;;;;5.13;1.40;;;;;;;29.57;36.55;102122.38;5071714;28;20057;-30
2022/05/17 10:50:35;;;;;;;5.30;1.40;;;;;;;29.48;37.08;102113.25;5072609;28;20048;-34
2022/05/17 10:53:11;;;;;;;6.30;1.63;;;;;;;29.31;36.87;102116.78;5068112;28;20075;-36
2022/05/17 10:55:50;;;;;;;5.80;1.35;;;;;;;29.22;37.38;102116.28;5068981;28;20049;-32
2022/05/17 10:58:29;;;;;;;6.05;1.30;;;;;;;28.98;37.83;102107.03;5072601;28;20048;-32
2022/05/17 11:01:09;;;;;;;6.45;1.40;;;;;;;28.85;38.45;102105.69;5069588;28;20049;-32
2022/05/17 11:04:12;;;;;;;4.95;1.73;;;;;;;28.82;37.75;102108.50;5072328;28;20052;-30
2022/05/17 11:06:48;;;;;;;6.30;1.48;;;;;;;28.73;38.56;102103.06;5069556;28;20048;-32
2022/05/17 11:09:24;;;;;;;3.30;1.10;;;;;;;28.67;39.37;102102.59;5071001;28;20059;-30
2022/05/17 11:12:01;;;;;;;5.13;1.40;;;;;;;28.65;38.86;102101.31;5072191;28;20133;-29
2022/05/17 11:14:34;;;;;;;3.85;1.25;;;;;;;28.64;39.43;102105.41;5068534;28;20139;-39
2022/05/17 11:17:08;;;;;;;5.07;1.25;;;;;;;28.65;39.19;102105.03;5068731;28;20060;-36
2022/05/17 11:19:43;;;;;;;7.00;1.60;;;;;;;28.56;39.26;102103.69;5071531;28;20441;-33
2022/05/17 11:22:20;;;;;;;5.18;1.02;;;;;;;28.41;39.53;102105.56;5069146;28;20044;-29
2022/05/17 11:25:19;;;;;;;6.22;1.20;;;;;;;28.35;39.90;102098.53;5071778;28;20044;-29
2022/05/17 11:28:01;;;;;;;4.78;1.23;;;;;;;28.32;39.92;102093.56;5061437;28;20044;-32
2022/05/17 11:30:33;;;;;;;4.78;1.10;;;;;;;28.34;39.90;102091.13;5070931;28;20048;-29
2022/05/17 11:33:12;;;;;;;4.00;1.13;;;;;;;28.41;39.55;102096.94;5071920;28;20052;-37
2022/05/17 11:35:50;;;;;;;3.53;1.05;;;;;;;28.42;39.34;102084.22;5060763;28;20040;-30
2022/05/17 11:38:21;;;;;;;5.38;1.75;;;;;;;28.42;39.49;102087.94;5071325;28;20048;-29
2022/05/17 11:40:58;;;;;;;4.80;1.63;;;;;;;28.46;39.66;102082.22;5071210;28;20045;-31
2022/05/17 11:43:41;;;;;;;4.88;1.23;;;;;;;28.48;39.12;102073.22;5070925;28;20048;-31